sensor_id;sensor_type;location;lat;lon;timestamp;P1;P2;P0
43479;PMS5003;29067;35.492;-97.520;2023-01-06T00:01:24;6;6;
43479;PMS5003;29067;35.492;-97.520;2023-01-06T00:03:53;8;6;
43479;PMS5003;29067;35.492;-97.520;2023-01-06T00:06:22;4;4;
43479;PMS5003;29067;35.492;-97.520;2023-01-06T00:08:51;7;5;
43479;PMS5003;29067;35.492;-97.520;2023-01-06T00:11:19;3;3;
43479;PMS5003;29067;35.492;-97.520;2023-01-06T00:13:47;3;3;
43479;PMS5003;29067;35.492;-97.520;2023-01-06T00:16:16;4;3;
43479;PMS5003;29067;35.492;-97.520;2023-01-06T00:18:45;3;3;
43479;PMS5003;29067;35.492;-97.520;2023-01-06T00:21:14;4;3;
43479;PMS5003;29067;35.492;-97.520;2023-01-06T00:23:43;3;3;
43479;PMS5003;29067;35.492;-97.520;2023-01-06T00:26:11;3;3;
43479;PMS5003;29067;35.492;-97.520;2023-01-06T00:28:38;9;6;
43479;PMS5003;29067;35.492;-97.520;2023-01-06T00:31:07;5;5;
43479;PMS5003;29067;35.492;-97.520;2023-01-06T00:33:38;9;8;
43479;PMS5003;29067;35.492;-97.520;2023-01-06T00:36:07;9;9;
43479;PMS5003;29067;35.492;-97.520;2023-01-06T00:38:37;8;8;
43479;PMS5003;29067;35.492;-97.520;2023-01-06T00:41:06;4;4;
43479;PMS5003;29067;35.492;-97.520;2023-01-06T00:43:35;4;3;
43479;PMS5003;29067;35.492;-97.520;2023-01-06T00:46:04;4;3;
43479;PMS5003;29067;35.492;-97.520;2023-01-06T00:48:31;3;3;
43479;PMS5003;29067;35.492;-97.520;2023-01-06T00:50:59;5;5;
43479;PMS5003;29067;35.492;-97.520;2023-01-06T00:53:27;5;4;
43479;PMS5003;29067;35.492;-97.520;2023-01-06T00:55:58;8;8;
43479;PMS5003;29067;35.492;-97.520;2023-01-06T00:58:28;11;11;
43479;PMS5003;29067;35.492;-97.520;2023-01-06T01:00:56;9;8;
43479;PMS5003;29067;35.492;-97.520;2023-01-06T01:03:24;8;7;
43479;PMS5003;29067;35.492;-97.520;2023-01-06T01:05:55;5;4;
43479;PMS5003;29067;35.492;-97.520;2023-01-06T01:08:25;20;20;
43479;PMS5003;29067;35.492;-97.520;2023-01-06T01:10:54;19;19;
43479;PMS5003;29067;35.492;-97.520;2023-01-06T01:13:28;9;9;
43479;PMS5003;29067;35.492;-97.520;2023-01-06T01:15:56;5;5;
43479;PMS5003;29067;35.492;-97.520;2023-01-06T01:18:29;9;5;
43479;PMS5003;29067;35.492;-97.520;2023-01-06T01:21:07;9;8;
43479;PMS5003;29067;35.492;-97.520;2023-01-06T01:23:35;23;23;
43479;PMS5003;29067;35.492;-97.520;2023-01-06T01:26:04;21;21;
43479;PMS5003;29067;35.492;-97.520;2023-01-06T01:28:32;26;26;
43479;PMS5003;29067;35.492;-97.520;2023-01-06T01:31:00;17;17;
43479;PMS5003;29067;35.492;-97.520;2023-01-06T01:33:33;14;13;
43479;PMS5003;29067;35.492;-97.520;2023-01-06T01:36:04;8;7;
43479;PMS5003;29067;35.492;-97.520;2023-01-06T01:38:32;13;9;
43479;PMS5003;29067;35.492;-97.520;2023-01-06T01:41:01;8;7;
43479;PMS5003;29067;35.492;-97.520;2023-01-06T01:43:43;8;7;
43479;PMS5003;29067;35.492;-97.520;2023-01-06T01:46:15;7;5;
43479;PMS5003;29067;35.492;-97.520;2023-01-06T01:48:45;7;7;
43479;PMS5003;29067;35.492;-97.520;2023-01-06T01:51:15;7;5;
43479;PMS5003;29067;35.492;-97.520;2023-01-06T01:53:48;8;4;
43479;PMS5003;29067;35.492;-97.520;2023-01-06T01:56:21;7;5;
43479;PMS5003;29067;35.492;-97.520;2023-01-06T01:58:54;20;19;
43479;PMS5003;29067;35.492;-97.520;2023-01-06T02:01:25;28;28;
43479;PMS5003;29067;35.492;-97.520;2023-01-06T02:03:54;152;152;
43479;PMS5003;29067;35.492;-97.520;2023-01-06T02:06:30;46;45;
43479;PMS5003;29067;35.492;-97.520;2023-01-06T02:09:01;40;40;
43479;PMS5003;29067;35.492;-97.520;2023-01-06T02:11:34;24;23;
43479;PMS5003;29067;35.492;-97.520;2023-01-06T02:14:06;16;14;
43479;PMS5003;29067;35.492;-97.520;2023-01-06T02:16:40;9;7;
43479;PMS5003;29067;35.492;-97.520;2023-01-06T02:19:24;10;9;
43479;PMS5003;29067;35.492;-97.520;2023-01-06T02:22:23;11;10;
43479;PMS5003;29067;35.492;-97.520;2023-01-06T02:25:10;8;8;
43479;PMS5003;29067;35.492;-97.520;2023-01-06T02:28:00;9;9;
43479;PMS5003;29067;35.492;-97.520;2023-01-06T02:30:55;7;7;
43479;PMS5003;29067;35.492;-97.520;2023-01-06T02:34:09;10;9;
43479;PMS5003;29067;35.492;-97.520;2023-01-06T02:36:48;15;9;
43479;PMS5003;29067;35.492;-97.520;2023-01-06T02:39:29;9;9;
43479;PMS5003;29067;35.492;-97.520;2023-01-06T02:42:13;8;7;
43479;PMS5003;29067;35.492;-97.520;2023-01-06T02:44:48;15;15;
43479;PMS5003;29067;35.492;-97.520;2023-01-06T02:47:30;15;14;
43479;PMS5003;29067;35.492;-97.520;2023-01-06T02:50:15;16;11;
43479;PMS5003;29067;35.492;-97.520;2023-01-06T02:52:54;16;13;
43479;PMS5003;29067;35.492;-97.520;2023-01-06T02:55:34;23;21;
43479;PMS5003;29067;35.492;-97.520;2023-01-06T02:58:16;64;62;
43479;PMS5003;29067;35.492;-97.520;2023-01-06T03:00:57;84;84;
43479;PMS5003;29067;35.492;-97.520;2023-01-06T03:03:31;116;116;
43479;PMS5003;29067;35.492;-97.520;2023-01-06T03:06:03;36;33;
43479;PMS5003;29067;35.492;-97.520;2023-01-06T03:08:35;56;54;
43479;PMS5003;29067;35.492;-97.520;2023-01-06T03:11:07;11;11;
43479;PMS5003;29067;35.492;-97.520;2023-01-06T03:13:36;9;7;
43479;PMS5003;29067;35.492;-97.520;2023-01-06T03:16:08;10;9;
43479;PMS5003;29067;35.492;-97.520;2023-01-06T03:18:36;7;7;
43479;PMS5003;29067;35.492;-97.520;2023-01-06T03:21:09;10;8;
43479;PMS5003;29067;35.492;-97.520;2023-01-06T03:23:40;6;6;
43479;PMS5003;29067;35.492;-97.520;2023-01-06T03:26:10;8;8;
43479;PMS5003;29067;35.492;-97.520;2023-01-06T03:28:39;9;9;
43479;PMS5003;29067;35.492;-97.520;2023-01-06T03:31:10;8;7;
43479;PMS5003;29067;35.492;-97.520;2023-01-06T03:33:50;9;7;
43479;PMS5003;29067;35.492;-97.520;2023-01-06T03:36:28;6;6;
43479;PMS5003;29067;35.492;-97.520;2023-01-06T03:39:14;6;6;
43479;PMS5003;29067;35.492;-97.520;2023-01-06T03:41:45;8;8;
43479;PMS5003;29067;35.492;-97.520;2023-01-06T03:44:28;9;9;
43479;PMS5003;29067;35.492;-97.520;2023-01-06T03:47:11;8;8;
43479;PMS5003;29067;35.492;-97.520;2023-01-06T03:49:50;8;8;
43479;PMS5003;29067;35.492;-97.520;2023-01-06T03:52:22;12;9;
43479;PMS5003;29067;35.492;-97.520;2023-01-06T03:54:56;6;6;
43479;PMS5003;29067;35.492;-97.520;2023-01-06T03:57:32;7;6;
43479;PMS5003;29067;35.492;-97.520;2023-01-06T04:00:11;6;6;
43479;PMS5003;29067;35.492;-97.520;2023-01-06T04:02:47;8;7;
43479;PMS5003;29067;35.492;-97.520;2023-01-06T04:05:17;7;7;
43479;PMS5003;29067;35.492;-97.520;2023-01-06T04:07:47;7;7;
43479;PMS5003;29067;35.492;-97.520;2023-01-06T04:10:17;8;7;
43479;PMS5003;29067;35.492;-97.520;2023-01-06T04:12:51;12;9;
43479;PMS5003;29067;35.492;-97.520;2023-01-06T04:15:25;8;7;
43479;PMS5003;29067;35.492;-97.520;2023-01-06T04:17:54;10;7;
43479;PMS5003;29067;35.492;-97.520;2023-01-06T04:20:24;6;6;
43479;PMS5003;29067;35.492;-97.520;2023-01-06T04:22:54;7;6;
43479;PMS5003;29067;35.492;-97.520;2023-01-06T04:25:28;11;8;
43479;PMS5003;29067;35.492;-97.520;2023-01-06T04:28:01;7;7;
43479;PMS5003;29067;35.492;-97.520;2023-01-06T04:30:29;8;7;
43479;PMS5003;29067;35.492;-97.520;2023-01-06T04:32:57;7;7;
43479;PMS5003;29067;35.492;-97.520;2023-01-06T04:35:30;7;6;
43479;PMS5003;29067;35.492;-97.520;2023-01-06T04:38:00;7;7;
43479;PMS5003;29067;35.492;-97.520;2023-01-06T04:40:27;7;6;
43479;PMS5003;29067;35.492;-97.520;2023-01-06T04:42:56;7;6;
43479;PMS5003;29067;35.492;-97.520;2023-01-06T04:45:24;3;3;
43479;PMS5003;29067;35.492;-97.520;2023-01-06T04:47:52;4;4;
43479;PMS5003;29067;35.492;-97.520;2023-01-06T04:50:20;8;8;
43479;PMS5003;29067;35.492;-97.520;2023-01-06T04:52:50;6;6;
43479;PMS5003;29067;35.492;-97.520;2023-01-06T04:55:17;2;2;
43479;PMS5003;29067;35.492;-97.520;2023-01-06T04:57:46;3;3;
43479;PMS5003;29067;35.492;-97.520;2023-01-06T05:00:15;8;6;
43479;PMS5003;29067;35.492;-97.520;2023-01-06T05:02:43;7;7;
43479;PMS5003;29067;35.492;-97.520;2023-01-06T05:05:12;6;4;
43479;PMS5003;29067;35.492;-97.520;2023-01-06T05:07:40;7;6;
43479;PMS5003;29067;35.492;-97.520;2023-01-06T05:10:09;8;8;
43479;PMS5003;29067;35.492;-97.520;2023-01-06T05:12:37;4;4;
43479;PMS5003;29067;35.492;-97.520;2023-01-06T05:15:05;7;7;
43479;PMS5003;29067;35.492;-97.520;2023-01-06T05:17:34;7;7;
43479;PMS5003;29067;35.492;-97.520;2023-01-06T05:20:03;8;7;
43479;PMS5003;29067;35.492;-97.520;2023-01-06T05:22:31;6;6;
43479;PMS5003;29067;35.492;-97.520;2023-01-06T05:25:01;6;6;
43479;PMS5003;29067;35.492;-97.520;2023-01-06T05:27:29;6;6;
43479;PMS5003;29067;35.492;-97.520;2023-01-06T05:29:58;6;6;
43479;PMS5003;29067;35.492;-97.520;2023-01-06T05:32:26;7;7;
43479;PMS5003;29067;35.492;-97.520;2023-01-06T05:34:54;8;7;
43479;PMS5003;29067;35.492;-97.520;2023-01-06T05:37:22;6;4;
43479;PMS5003;29067;35.492;-97.520;2023-01-06T05:39:50;9;7;
43479;PMS5003;29067;35.492;-97.520;2023-01-06T05:42:18;8;7;
43479;PMS5003;29067;35.492;-97.520;2023-01-06T05:44:46;4;4;
43479;PMS5003;29067;35.492;-97.520;2023-01-06T05:47:15;6;4;
43479;PMS5003;29067;35.492;-97.520;2023-01-06T05:49:43;6;6;
43479;PMS5003;29067;35.492;-97.520;2023-01-06T05:52:11;4;4;
43479;PMS5003;29067;35.492;-97.520;2023-01-06T05:54:39;6;6;
43479;PMS5003;29067;35.492;-97.520;2023-01-06T05:57:13;7;6;
43479;PMS5003;29067;35.492;-97.520;2023-01-06T05:59:40;6;6;
43479;PMS5003;29067;35.492;-97.520;2023-01-06T06:02:09;7;6;
43479;PMS5003;29067;35.492;-97.520;2023-01-06T06:04:36;4;4;
43479;PMS5003;29067;35.492;-97.520;2023-01-06T06:07:04;9;7;
43479;PMS5003;29067;35.492;-97.520;2023-01-06T06:09:32;4;4;
43479;PMS5003;29067;35.492;-97.520;2023-01-06T06:12:06;4;4;
43479;PMS5003;29067;35.492;-97.520;2023-01-06T06:14:35;6;6;
43479;PMS5003;29067;35.492;-97.520;2023-01-06T06:17:03;6;6;
43479;PMS5003;29067;35.492;-97.520;2023-01-06T06:19:31;7;6;
43479;PMS5003;29067;35.492;-97.520;2023-01-06T06:22:04;6;6;
43479;PMS5003;29067;35.492;-97.520;2023-01-06T06:24:37;7;7;
43479;PMS5003;29067;35.492;-97.520;2023-01-06T06:27:11;3;3;
43479;PMS5003;29067;35.492;-97.520;2023-01-06T06:29:44;4;4;
43479;PMS5003;29067;35.492;-97.520;2023-01-06T06:32:14;4;4;
43479;PMS5003;29067;35.492;-97.520;2023-01-06T06:34:57;4;4;
43479;PMS5003;29067;35.492;-97.520;2023-01-06T06:37:26;4;4;
43479;PMS5003;29067;35.492;-97.520;2023-01-06T06:39:59;4;3;
43479;PMS5003;29067;35.492;-97.520;2023-01-06T06:42:27;7;3;
43479;PMS5003;29067;35.492;-97.520;2023-01-06T06:44:55;6;4;
43479;PMS5003;29067;35.492;-97.520;2023-01-06T06:47:24;4;4;
43479;PMS5003;29067;35.492;-97.520;2023-01-06T06:49:52;4;4;
43479;PMS5003;29067;35.492;-97.520;2023-01-06T06:52:20;6;4;
43479;PMS5003;29067;35.492;-97.520;2023-01-06T06:54:48;5;5;
43479;PMS5003;29067;35.492;-97.520;2023-01-06T06:57:17;5;5;
43479;PMS5003;29067;35.492;-97.520;2023-01-06T06:59:49;5;5;
43479;PMS5003;29067;35.492;-97.520;2023-01-06T07:02:17;7;6;
43479;PMS5003;29067;35.492;-97.520;2023-01-06T07:04:46;6;3;
43479;PMS5003;29067;35.492;-97.520;2023-01-06T07:07:14;2;2;
43479;PMS5003;29067;35.492;-97.520;2023-01-06T07:09:42;3;3;
43479;PMS5003;29067;35.492;-97.520;2023-01-06T07:12:10;3;3;
43479;PMS5003;29067;35.492;-97.520;2023-01-06T07:14:38;4;3;
43479;PMS5003;29067;35.492;-97.520;2023-01-06T07:17:06;5;5;
43479;PMS5003;29067;35.492;-97.520;2023-01-06T07:19:39;3;3;
43479;PMS5003;29067;35.492;-97.520;2023-01-06T07:22:08;3;3;
43479;PMS5003;29067;35.492;-97.520;2023-01-06T07:24:47;5;3;
43479;PMS5003;29067;35.492;-97.520;2023-01-06T07:27:20;3;3;
43479;PMS5003;29067;35.492;-97.520;2023-01-06T07:29:48;5;3;
43479;PMS5003;29067;35.492;-97.520;2023-01-06T07:32:16;3;3;
43479;PMS5003;29067;35.492;-97.520;2023-01-06T07:34:44;3;3;
43479;PMS5003;29067;35.492;-97.520;2023-01-06T07:37:12;2;2;
43479;PMS5003;29067;35.492;-97.520;2023-01-06T07:39:40;3;3;
43479;PMS5003;29067;35.492;-97.520;2023-01-06T07:42:08;3;2;
43479;PMS5003;29067;35.492;-97.520;2023-01-06T07:44:37;3;3;
43479;PMS5003;29067;35.492;-97.520;2023-01-06T07:47:05;3;3;
43479;PMS5003;29067;35.492;-97.520;2023-01-06T07:49:33;3;3;
43479;PMS5003;29067;35.492;-97.520;2023-01-06T07:52:13;3;3;
43479;PMS5003;29067;35.492;-97.520;2023-01-06T07:54:41;3;3;
43479;PMS5003;29067;35.492;-97.520;2023-01-06T07:57:09;5;3;
43479;PMS5003;29067;35.492;-97.520;2023-01-06T07:59:42;3;3;
43479;PMS5003;29067;35.492;-97.520;2023-01-06T08:02:11;3;3;
43479;PMS5003;29067;35.492;-97.520;2023-01-06T08:04:40;5;5;
43479;PMS5003;29067;35.492;-97.520;2023-01-06T08:07:08;2;2;
43479;PMS5003;29067;35.492;-97.520;2023-01-06T08:09:38;3;2;
43479;PMS5003;29067;35.492;-97.520;2023-01-06T08:12:12;3;3;
43479;PMS5003;29067;35.492;-97.520;2023-01-06T08:14:48;6;4;
43479;PMS5003;29067;35.492;-97.520;2023-01-06T08:17:17;3;3;
43479;PMS5003;29067;35.492;-97.520;2023-01-06T08:19:50;5;5;
43479;PMS5003;29067;35.492;-97.520;2023-01-06T08:22:18;7;5;
43479;PMS5003;29067;35.492;-97.520;2023-01-06T08:24:46;3;3;
43479;PMS5003;29067;35.492;-97.520;2023-01-06T08:27:14;4;4;
43479;PMS5003;29067;35.492;-97.520;2023-01-06T08:29:48;7;6;
43479;PMS5003;29067;35.492;-97.520;2023-01-06T08:32:21;4;3;
43479;PMS5003;29067;35.492;-97.520;2023-01-06T08:34:59;4;4;
43479;PMS5003;29067;35.492;-97.520;2023-01-06T08:37:28;6;6;
43479;PMS5003;29067;35.492;-97.520;2023-01-06T08:40:02;4;4;
43479;PMS5003;29067;35.492;-97.520;2023-01-06T08:42:31;4;3;
43479;PMS5003;29067;35.492;-97.520;2023-01-06T08:45:00;3;3;
43479;PMS5003;29067;35.492;-97.520;2023-01-06T08:47:29;2;2;
43479;PMS5003;29067;35.492;-97.520;2023-01-06T08:49:58;2;2;
43479;PMS5003;29067;35.492;-97.520;2023-01-06T08:52:31;2;2;
43479;PMS5003;29067;35.492;-97.520;2023-01-06T08:55:00;3;2;
43479;PMS5003;29067;35.492;-97.520;2023-01-06T08:57:28;3;3;
43479;PMS5003;29067;35.492;-97.520;2023-01-06T08:59:56;2;2;
43479;PMS5003;29067;35.492;-97.520;2023-01-06T09:02:24;2;2;
43479;PMS5003;29067;35.492;-97.520;2023-01-06T09:04:52;2;2;
43479;PMS5003;29067;35.492;-97.520;2023-01-06T09:07:20;2;2;
43479;PMS5003;29067;35.492;-97.520;2023-01-06T09:09:48;3;2;
43479;PMS5003;29067;35.492;-97.520;2023-01-06T09:12:16;2;2;
43479;PMS5003;29067;35.492;-97.520;2023-01-06T09:14:49;6;3;
43479;PMS5003;29067;35.492;-97.520;2023-01-06T09:17:23;2;1;
43479;PMS5003;29067;35.492;-97.520;2023-01-06T09:19:56;5;3;
43479;PMS5003;29067;35.492;-97.520;2023-01-06T09:22:24;2;2;
43479;PMS5003;29067;35.492;-97.520;2023-01-06T09:24:52;2;2;
43479;PMS5003;29067;35.492;-97.520;2023-01-06T09:27:20;2;2;
43479;PMS5003;29067;35.492;-97.520;2023-01-06T09:29:49;3;2;
43479;PMS5003;29067;35.492;-97.520;2023-01-06T09:32:17;5;3;
43479;PMS5003;29067;35.492;-97.520;2023-01-06T09:34:46;5;3;
43479;PMS5003;29067;35.492;-97.520;2023-01-06T09:37:23;2;2;
43479;PMS5003;29067;35.492;-97.520;2023-01-06T09:39:56;5;3;
43479;PMS5003;29067;35.492;-97.520;2023-01-06T09:42:28;3;3;
43479;PMS5003;29067;35.492;-97.520;2023-01-06T09:45:10;3;2;
43479;PMS5003;29067;35.492;-97.520;2023-01-06T09:47:44;7;5;
43479;PMS5003;29067;35.492;-97.520;2023-01-06T09:50:24;6;6;
43479;PMS5003;29067;35.492;-97.520;2023-01-06T09:53:00;10;10;
43479;PMS5003;29067;35.492;-97.520;2023-01-06T09:55:33;18;16;
43479;PMS5003;29067;35.492;-97.520;2023-01-06T09:58:05;26;20;
43479;PMS5003;29067;35.492;-97.520;2023-01-06T10:00:38;28;27;
43479;PMS5003;29067;35.492;-97.520;2023-01-06T10:03:11;33;32;
43479;PMS5003;29067;35.492;-97.520;2023-01-06T10:05:44;41;34;
43479;PMS5003;29067;35.492;-97.520;2023-01-06T10:08:23;43;37;
43479;PMS5003;29067;35.492;-97.520;2023-01-06T10:11:05;48;38;
43479;PMS5003;29067;35.492;-97.520;2023-01-06T10:13:43;44;38;
43479;PMS5003;29067;35.492;-97.520;2023-01-06T10:16:25;46;39;
43479;PMS5003;29067;35.492;-97.520;2023-01-06T10:19:03;45;38;
43479;PMS5003;29067;35.492;-97.520;2023-01-06T10:21:42;47;41;
43479;PMS5003;29067;35.492;-97.520;2023-01-06T10:24:20;61;45;
43479;PMS5003;29067;35.492;-97.520;2023-01-06T10:26:56;62;49;
43479;PMS5003;29067;35.492;-97.520;2023-01-06T10:29:28;65;52;
43479;PMS5003;29067;35.492;-97.520;2023-01-06T10:32:01;63;54;
43479;PMS5003;29067;35.492;-97.520;2023-01-06T10:34:37;48;44;
43479;PMS5003;29067;35.492;-97.520;2023-01-06T10:37:10;58;49;
43479;PMS5003;29067;35.492;-97.520;2023-01-06T10:39:43;54;46;
43479;PMS5003;29067;35.492;-97.520;2023-01-06T10:42:23;51;44;
43479;PMS5003;29067;35.492;-97.520;2023-01-06T10:44:59;39;36;
43479;PMS5003;29067;35.492;-97.520;2023-01-06T10:47:28;46;33;
43479;PMS5003;29067;35.492;-97.520;2023-01-06T10:49:59;44;34;
43479;PMS5003;29067;35.492;-97.520;2023-01-06T10:52:28;33;31;
43479;PMS5003;29067;35.492;-97.520;2023-01-06T10:54:58;36;30;
43479;PMS5003;29067;35.492;-97.520;2023-01-06T10:57:32;37;29;
43479;PMS5003;29067;35.492;-97.520;2023-01-06T11:00:07;30;28;
43479;PMS5003;29067;35.492;-97.520;2023-01-06T11:02:41;26;25;
43479;PMS5003;29067;35.492;-97.520;2023-01-06T11:05:14;27;25;
43479;PMS5003;29067;35.492;-97.520;2023-01-06T11:07:47;32;29;
43479;PMS5003;29067;35.492;-97.520;2023-01-06T11:10:26;30;27;
43479;PMS5003;29067;35.492;-97.520;2023-01-06T11:12:57;33;29;
43479;PMS5003;29067;35.492;-97.520;2023-01-06T11:15:30;28;28;
43479;PMS5003;29067;35.492;-97.520;2023-01-06T11:18:05;38;26;
43479;PMS5003;29067;35.492;-97.520;2023-01-06T11:20:50;26;24;
43479;PMS5003;29067;35.492;-97.520;2023-01-06T11:23:35;24;24;
43479;PMS5003;29067;35.492;-97.520;2023-01-06T11:26:14;33;27;
43479;PMS5003;29067;35.492;-97.520;2023-01-06T11:28:53;29;24;
43479;PMS5003;29067;35.492;-97.520;2023-01-06T11:31:22;25;24;
43479;PMS5003;29067;35.492;-97.520;2023-01-06T11:33:53;27;24;
43479;PMS5003;29067;35.492;-97.520;2023-01-06T11:36:23;22;21;
43479;PMS5003;29067;35.492;-97.520;2023-01-06T11:38:55;20;19;
43479;PMS5003;29067;35.492;-97.520;2023-01-06T11:41:27;23;22;
43479;PMS5003;29067;35.492;-97.520;2023-01-06T11:44:02;18;17;
43479;PMS5003;29067;35.492;-97.520;2023-01-06T11:46:34;22;17;
43479;PMS5003;29067;35.492;-97.520;2023-01-06T11:49:05;17;14;
43479;PMS5003;29067;35.492;-97.520;2023-01-06T11:51:46;14;14;
43479;PMS5003;29067;35.492;-97.520;2023-01-06T11:54:20;17;15;
43479;PMS5003;29067;35.492;-97.520;2023-01-06T11:56:59;15;14;
43479;PMS5003;29067;35.492;-97.520;2023-01-06T11:59:44;22;17;
43479;PMS5003;29067;35.492;-97.520;2023-01-06T12:03:02;16;16;
43479;PMS5003;29067;35.492;-97.520;2023-01-06T12:05:43;15;15;
43479;PMS5003;29067;35.492;-97.520;2023-01-06T12:08:18;15;14;
43479;PMS5003;29067;35.492;-97.520;2023-01-06T12:10:52;15;13;
43479;PMS5003;29067;35.492;-97.520;2023-01-06T12:13:27;12;12;
43479;PMS5003;29067;35.492;-97.520;2023-01-06T12:16:02;13;12;
43479;PMS5003;29067;35.492;-97.520;2023-01-06T12:18:38;15;13;
43479;PMS5003;29067;35.492;-97.520;2023-01-06T12:21:11;14;13;
43479;PMS5003;29067;35.492;-97.520;2023-01-06T12:23:45;21;14;
43479;PMS5003;29067;35.492;-97.520;2023-01-06T12:26:16;12;12;
43479;PMS5003;29067;35.492;-97.520;2023-01-06T12:28:47;12;10;
43479;PMS5003;29067;35.492;-97.520;2023-01-06T12:31:21;12;9;
43479;PMS5003;29067;35.492;-97.520;2023-01-06T12:33:55;12;12;
43479;PMS5003;29067;35.492;-97.520;2023-01-06T12:36:32;10;10;
43479;PMS5003;29067;35.492;-97.520;2023-01-06T12:39:09;13;12;
43479;PMS5003;29067;35.492;-97.520;2023-01-06T12:41:43;10;9;
43479;PMS5003;29067;35.492;-97.520;2023-01-06T12:44:18;9;8;
43479;PMS5003;29067;35.492;-97.520;2023-01-06T12:47:00;9;9;
43479;PMS5003;29067;35.492;-97.520;2023-01-06T12:49:40;10;9;
43479;PMS5003;29067;35.492;-97.520;2023-01-06T12:52:15;10;9;
43479;PMS5003;29067;35.492;-97.520;2023-01-06T12:54:55;10;10;
43479;PMS5003;29067;35.492;-97.520;2023-01-06T12:57:29;10;9;
43479;PMS5003;29067;35.492;-97.520;2023-01-06T13:00:17;8;8;
43479;PMS5003;29067;35.492;-97.520;2023-01-06T13:02:55;9;9;
43479;PMS5003;29067;35.492;-97.520;2023-01-06T13:05:40;13;9;
43479;PMS5003;29067;35.492;-97.520;2023-01-06T13:08:24;7;7;
43479;PMS5003;29067;35.492;-97.520;2023-01-06T13:11:05;7;7;
43479;PMS5003;29067;35.492;-97.520;2023-01-06T13:13:44;9;8;
43479;PMS5003;29067;35.492;-97.520;2023-01-06T13:16:25;9;9;
43479;PMS5003;29067;35.492;-97.520;2023-01-06T13:19:01;12;8;
43479;PMS5003;29067;35.492;-97.520;2023-01-06T13:21:36;9;9;
43479;PMS5003;29067;35.492;-97.520;2023-01-06T13:24:13;5;5;
43479;PMS5003;29067;35.492;-97.520;2023-01-06T13:27:04;4;4;
43479;PMS5003;29067;35.492;-97.520;2023-01-06T13:29:47;9;9;
43479;PMS5003;29067;35.492;-97.520;2023-01-06T13:32:32;7;7;
43479;PMS5003;29067;35.492;-97.520;2023-01-06T13:35:18;8;8;
43479;PMS5003;29067;35.492;-97.520;2023-01-06T13:38:03;7;7;
43479;PMS5003;29067;35.492;-97.520;2023-01-06T13:40:43;8;8;
43479;PMS5003;29067;35.492;-97.520;2023-01-06T13:43:14;9;8;
43479;PMS5003;29067;35.492;-97.520;2023-01-06T13:45:48;16;16;
43479;PMS5003;29067;35.492;-97.520;2023-01-06T13:48:23;27;27;
43479;PMS5003;29067;35.492;-97.520;2023-01-06T13:50:55;34;31;
43479;PMS5003;29067;35.492;-97.520;2023-01-06T13:53:26;16;16;
43479;PMS5003;29067;35.492;-97.520;2023-01-06T13:56:34;14;14;
43479;PMS5003;29067;35.492;-97.520;2023-01-06T13:59:18;18;18;
43479;PMS5003;29067;35.492;-97.520;2023-01-06T14:01:49;77;74;
43479;PMS5003;29067;35.492;-97.520;2023-01-06T14:04:52;56;56;
43479;PMS5003;29067;35.492;-97.520;2023-01-06T14:07:36;76;75;
43479;PMS5003;29067;35.492;-97.520;2023-01-06T14:10:15;12;12;
43479;PMS5003;29067;35.492;-97.520;2023-01-06T14:12:56;24;23;
43479;PMS5003;29067;35.492;-97.520;2023-01-06T14:15:26;17;17;
43479;PMS5003;29067;35.492;-97.520;2023-01-06T14:17:56;11;11;
43479;PMS5003;29067;35.492;-97.520;2023-01-06T14:20:26;10;10;
43479;PMS5003;29067;35.492;-97.520;2023-01-06T14:22:59;9;9;
43479;PMS5003;29067;35.492;-97.520;2023-01-06T14:25:29;8;7;
43479;PMS5003;29067;35.492;-97.520;2023-01-06T14:28:05;7;7;
43479;PMS5003;29067;35.492;-97.520;2023-01-06T14:30:48;3;3;
43479;PMS5003;29067;35.492;-97.520;2023-01-06T14:33:22;5;5;
43479;PMS5003;29067;35.492;-97.520;2023-01-06T14:36:05;4;4;
43479;PMS5003;29067;35.492;-97.520;2023-01-06T14:38:41;4;4;
43479;PMS5003;29067;35.492;-97.520;2023-01-06T14:41:16;5;4;
43479;PMS5003;29067;35.492;-97.520;2023-01-06T14:43:51;4;3;
43479;PMS5003;29067;35.492;-97.520;2023-01-06T14:46:23;5;5;
43479;PMS5003;29067;35.492;-97.520;2023-01-06T14:48:56;4;4;
43479;PMS5003;29067;35.492;-97.520;2023-01-06T14:51:27;5;4;
43479;PMS5003;29067;35.492;-97.520;2023-01-06T14:53:58;5;5;
43479;PMS5003;29067;35.492;-97.520;2023-01-06T14:56:39;3;3;
43479;PMS5003;29067;35.492;-97.520;2023-01-06T14:59:17;2;2;
43479;PMS5003;29067;35.492;-97.520;2023-01-06T15:01:53;4;4;
43479;PMS5003;29067;35.492;-97.520;2023-01-06T15:04:29;3;3;
43479;PMS5003;29067;35.492;-97.520;2023-01-06T15:07:01;3;3;
43479;PMS5003;29067;35.492;-97.520;2023-01-06T15:09:40;4;3;
43479;PMS5003;29067;35.492;-97.520;2023-01-06T15:12:26;2;2;
43479;PMS5003;29067;35.492;-97.520;2023-01-06T15:14:55;5;4;
43479;PMS5003;29067;35.492;-97.520;2023-01-06T15:17:39;4;3;
43479;PMS5003;29067;35.492;-97.520;2023-01-06T15:20:09;3;3;
43479;PMS5003;29067;35.492;-97.520;2023-01-06T15:22:39;4;3;
43479;PMS5003;29067;35.492;-97.520;2023-01-06T15:25:14;4;3;
43479;PMS5003;29067;35.492;-97.520;2023-01-06T15:27:47;4;4;
43479;PMS5003;29067;35.492;-97.520;2023-01-06T15:30:17;4;3;
43479;PMS5003;29067;35.492;-97.520;2023-01-06T15:32:49;4;4;
43479;PMS5003;29067;35.492;-97.520;2023-01-06T15:35:19;4;3;
43479;PMS5003;29067;35.492;-97.520;2023-01-06T15:37:54;5;5;
43479;PMS5003;29067;35.492;-97.520;2023-01-06T15:40:28;3;3;
43479;PMS5003;29067;35.492;-97.520;2023-01-06T15:42:57;4;4;
43479;PMS5003;29067;35.492;-97.520;2023-01-06T15:45:26;3;3;
43479;PMS5003;29067;35.492;-97.520;2023-01-06T15:47:57;3;3;
43479;PMS5003;29067;35.492;-97.520;2023-01-06T15:50:29;3;3;
43479;PMS5003;29067;35.492;-97.520;2023-01-06T15:52:59;5;4;
43479;PMS5003;29067;35.492;-97.520;2023-01-06T15:55:30;5;5;
43479;PMS5003;29067;35.492;-97.520;2023-01-06T15:58:03;6;4;
43479;PMS5003;29067;35.492;-97.520;2023-01-06T16:00:33;4;3;
43479;PMS5003;29067;35.492;-97.520;2023-01-06T16:03:12;5;4;
43479;PMS5003;29067;35.492;-97.520;2023-01-06T16:05:46;4;4;
43479;PMS5003;29067;35.492;-97.520;2023-01-06T16:08:22;4;4;
43479;PMS5003;29067;35.492;-97.520;2023-01-06T16:11:07;6;4;
43479;PMS5003;29067;35.492;-97.520;2023-01-06T16:13:56;6;5;
43479;PMS5003;29067;35.492;-97.520;2023-01-06T16:16:25;5;4;
43479;PMS5003;29067;35.492;-97.520;2023-01-06T16:19:06;7;5;
43479;PMS5003;29067;35.492;-97.520;2023-01-06T16:21:34;6;5;
43479;PMS5003;29067;35.492;-97.520;2023-01-06T16:24:03;4;3;
43479;PMS5003;29067;35.492;-97.520;2023-01-06T16:26:44;6;4;
43479;PMS5003;29067;35.492;-97.520;2023-01-06T16:29:24;5;5;
43479;PMS5003;29067;35.492;-97.520;2023-01-06T16:31:53;4;4;
43479;PMS5003;29067;35.492;-97.520;2023-01-06T16:34:24;4;3;
43479;PMS5003;29067;35.492;-97.520;2023-01-06T16:36:54;5;5;
43479;PMS5003;29067;35.492;-97.520;2023-01-06T16:39:24;4;4;
43479;PMS5003;29067;35.492;-97.520;2023-01-06T16:42:28;4;4;
43479;PMS5003;29067;35.492;-97.520;2023-01-06T16:44:59;4;3;
43479;PMS5003;29067;35.492;-97.520;2023-01-06T16:47:28;4;4;
43479;PMS5003;29067;35.492;-97.520;2023-01-06T16:49:56;6;5;